sensor_id;sensor_type;location;lat;lon;timestamp;P1;durP1;ratioP1;P2;durP2;ratioP2
73729;SDS011;62036;48.128;16.458;2023-08-06T00:00:27;0.57;;;0.10;;
73729;SDS011;62036;48.128;16.458;2023-08-06T00:02:53;0.50;;;0.10;;
73729;SDS011;62036;48.128;16.458;2023-08-06T00:05:19;0.20;;;0.13;;
73729;SDS011;62036;48.128;16.458;2023-08-06T00:07:48;0.30;;;0.17;;
73729;SDS011;62036;48.128;16.458;2023-08-06T00:10:14;0.20;;;0.13;;
73729;SDS011;62036;48.128;16.458;2023-08-06T00:12:40;0.90;;;0.10;;
73729;SDS011;62036;48.128;16.458;2023-08-06T00:15:07;0.10;;;0.10;;
73729;SDS011;62036;48.128;16.458;2023-08-06T00:17:33;0.20;;;0.10;;
73729;SDS011;62036;48.128;16.458;2023-08-06T00:20:00;0.10;;;0.10;;
73729;SDS011;62036;48.128;16.458;2023-08-06T00:22:30;0.10;;;0.00;;
73729;SDS011;62036;48.128;16.458;2023-08-06T00:24:56;0.10;;;0.10;;
73729;SDS011;62036;48.128;16.458;2023-08-06T00:27:22;0.17;;;0.10;;
73729;SDS011;62036;48.128;16.458;2023-08-06T00:29:48;0.00;;;0.00;;
73729;SDS011;62036;48.128;16.458;2023-08-06T00:32:14;0.13;;;0.10;;
73729;SDS011;62036;48.128;16.458;2023-08-06T00:34:40;0.10;;;0.10;;
73729;SDS011;62036;48.128;16.458;2023-08-06T00:37:06;0.10;;;0.10;;
73729;SDS011;62036;48.128;16.458;2023-08-06T00:39:32;0.20;;;0.20;;
73729;SDS011;62036;48.128;16.458;2023-08-06T00:41:58;0.10;;;0.10;;
73729;SDS011;62036;48.128;16.458;2023-08-06T00:44:24;0.20;;;0.10;;
73729;SDS011;62036;48.128;16.458;2023-08-06T00:46:50;0.17;;;0.10;;
73729;SDS011;62036;48.128;16.458;2023-08-06T00:49:16;0.13;;;0.10;;
73729;SDS011;62036;48.128;16.458;2023-08-06T00:51:42;0.17;;;0.17;;
73729;SDS011;62036;48.128;16.458;2023-08-06T00:54:09;0.10;;;0.10;;
73729;SDS011;62036;48.128;16.458;2023-08-06T00:56:35;0.75;;;0.30;;
73729;SDS011;62036;48.128;16.458;2023-08-06T00:59:03;0.30;;;0.20;;
73729;SDS011;62036;48.128;16.458;2023-08-06T01:01:29;0.17;;;0.10;;
73729;SDS011;62036;48.128;16.458;2023-08-06T01:03:56;0.70;;;0.15;;
73729;SDS011;62036;48.128;16.458;2023-08-06T01:06:24;0.88;;;0.28;;
73729;SDS011;62036;48.128;16.458;2023-08-06T01:08:59;0.28;;;0.20;;
73729;SDS011;62036;48.128;16.458;2023-08-06T01:11:26;0.20;;;0.15;;
73729;SDS011;62036;48.128;16.458;2023-08-06T01:13:55;0.70;;;0.17;;
73729;SDS011;62036;48.128;16.458;2023-08-06T01:16:22;0.47;;;0.30;;
73729;SDS011;62036;48.128;16.458;2023-08-06T01:18:49;0.20;;;0.10;;
73729;SDS011;62036;48.128;16.458;2023-08-06T01:21:16;0.38;;;0.13;;
73729;SDS011;62036;48.128;16.458;2023-08-06T01:23:42;0.20;;;0.20;;
73729;SDS011;62036;48.128;16.458;2023-08-06T01:26:15;0.10;;;0.10;;
73729;SDS011;62036;48.128;16.458;2023-08-06T01:34:31;0.38;;;0.15;;
73729;SDS011;62036;48.128;16.458;2023-08-06T01:36:55;0.20;;;0.10;;
73729;SDS011;62036;48.128;16.458;2023-08-06T01:39:21;0.10;;;0.10;;
73729;SDS011;62036;48.128;16.458;2023-08-06T01:41:48;0.30;;;0.20;;
73729;SDS011;62036;48.128;16.458;2023-08-06T01:44:14;0.10;;;0.00;;
73729;SDS011;62036;48.128;16.458;2023-08-06T01:46:40;0.30;;;0.20;;
73729;SDS011;62036;48.128;16.458;2023-08-06T01:49:06;0.20;;;0.13;;
73729;SDS011;62036;48.128;16.458;2023-08-06T01:51:32;0.10;;;0.10;;
73729;SDS011;62036;48.128;16.458;2023-08-06T01:53:58;0.10;;;0.10;;
73729;SDS011;62036;48.128;16.458;2023-08-06T01:56:24;0.43;;;0.38;;
73729;SDS011;62036;48.128;16.458;2023-08-06T01:58:50;0.40;;;0.40;;
73729;SDS011;62036;48.128;16.458;2023-08-06T02:01:17;1.70;;;0.30;;
73729;SDS011;62036;48.128;16.458;2023-08-06T02:03:43;0.30;;;0.20;;
73729;SDS011;62036;48.128;16.458;2023-08-06T02:06:09;0.35;;;0.20;;
73729;SDS011;62036;48.128;16.458;2023-08-06T02:08:35;0.20;;;0.20;;
73729;SDS011;62036;48.128;16.458;2023-08-06T02:11:01;0.50;;;0.50;;
73729;SDS011;62036;48.128;16.458;2023-08-06T02:13:28;0.35;;;0.28;;
73729;SDS011;62036;48.128;16.458;2023-08-06T02:15:54;1.17;;;0.40;;
73729;SDS011;62036;48.128;16.458;2023-08-06T02:18:20;0.40;;;0.30;;
73729;SDS011;62036;48.128;16.458;2023-08-06T02:20:58;1.80;;;0.28;;
73729;SDS011;62036;48.128;16.458;2023-08-06T02:23:24;1.67;;;0.40;;
73729;SDS011;62036;48.128;16.458;2023-08-06T02:26:00;0.50;;;0.47;;
73729;SDS011;62036;48.128;16.458;2023-08-06T02:28:26;0.82;;;0.30;;
73729;SDS011;62036;48.128;16.458;2023-08-06T02:30:52;1.40;;;0.40;;
73729;SDS011;62036;48.128;16.458;2023-08-06T02:33:18;1.15;;;0.60;;
73729;SDS011;62036;48.128;16.458;2023-08-06T02:35:44;0.85;;;0.85;;
73729;SDS011;62036;48.128;16.458;2023-08-06T02:38:10;0.40;;;0.40;;
73729;SDS011;62036;48.128;16.458;2023-08-06T02:40:36;0.47;;;0.43;;
73729;SDS011;62036;48.128;16.458;2023-08-06T02:43:02;0.75;;;0.47;;
73729;SDS011;62036;48.128;16.458;2023-08-06T02:45:28;0.43;;;0.35;;
73729;SDS011;62036;48.128;16.458;2023-08-06T02:47:54;0.40;;;0.32;;
73729;SDS011;62036;48.128;16.458;2023-08-06T02:50:20;0.40;;;0.32;;
73729;SDS011;62036;48.128;16.458;2023-08-06T02:52:46;0.30;;;0.30;;
73729;SDS011;62036;48.128;16.458;2023-08-06T02:55:12;0.70;;;0.50;;
73729;SDS011;62036;48.128;16.458;2023-08-06T02:57:38;0.75;;;0.70;;
73729;SDS011;62036;48.128;16.458;2023-08-06T03:00:05;1.65;;;0.47;;
73729;SDS011;62036;48.128;16.458;2023-08-06T03:02:31;0.50;;;0.50;;
73729;SDS011;62036;48.128;16.458;2023-08-06T03:04:57;0.52;;;0.40;;
73729;SDS011;62036;48.128;16.458;2023-08-06T03:07:23;0.80;;;0.60;;
73729;SDS011;62036;48.128;16.458;2023-08-06T03:09:49;0.90;;;0.55;;
73729;SDS011;62036;48.128;16.458;2023-08-06T03:12:15;1.05;;;0.95;;
73729;SDS011;62036;48.128;16.458;2023-08-06T03:14:41;1.60;;;0.60;;
73729;SDS011;62036;48.128;16.458;2023-08-06T03:17:07;0.90;;;0.52;;
73729;SDS011;62036;48.128;16.458;2023-08-06T03:19:33;0.47;;;0.47;;
73729;SDS011;62036;48.128;16.458;2023-08-06T03:21:59;0.82;;;0.47;;
73729;SDS011;62036;48.128;16.458;2023-08-06T03:24:25;0.50;;;0.43;;
73729;SDS011;62036;48.128;16.458;2023-08-06T03:26:51;0.30;;;0.28;;
73729;SDS011;62036;48.128;16.458;2023-08-06T03:29:17;0.70;;;0.50;;
73729;SDS011;62036;48.128;16.458;2023-08-06T03:31:43;0.93;;;0.60;;
73729;SDS011;62036;48.128;16.458;2023-08-06T03:34:09;1.48;;;0.60;;
73729;SDS011;62036;48.128;16.458;2023-08-06T03:36:35;0.52;;;0.50;;
73729;SDS011;62036;48.128;16.458;2023-08-06T03:39:01;0.68;;;0.60;;
73729;SDS011;62036;48.128;16.458;2023-08-06T03:41:28;0.70;;;0.60;;
73729;SDS011;62036;48.128;16.458;2023-08-06T03:43:53;1.20;;;0.98;;
73729;SDS011;62036;48.128;16.458;2023-08-06T03:46:19;0.60;;;0.60;;
73729;SDS011;62036;48.128;16.458;2023-08-06T03:48:45;0.70;;;0.70;;
73729;SDS011;62036;48.128;16.458;2023-08-06T03:51:11;1.15;;;0.93;;
73729;SDS011;62036;48.128;16.458;2023-08-06T03:53:37;1.20;;;0.82;;
73729;SDS011;62036;48.128;16.458;2023-08-06T03:56:04;1.00;;;0.90;;
73729;SDS011;62036;48.128;16.458;2023-08-06T03:58:30;1.00;;;0.90;;
73729;SDS011;62036;48.128;16.458;2023-08-06T04:01:02;1.08;;;0.93;;
73729;SDS011;62036;48.128;16.458;2023-08-06T04:03:29;1.52;;;0.90;;
73729;SDS011;62036;48.128;16.458;2023-08-06T04:05:55;1.52;;;0.95;;
73729;SDS011;62036;48.128;16.458;2023-08-06T04:08:21;1.17;;;1.08;;
73729;SDS011;62036;48.128;16.458;2023-08-06T04:10:51;0.95;;;0.90;;
73729;SDS011;62036;48.128;16.458;2023-08-06T04:13:18;1.38;;;0.98;;
73729;SDS011;62036;48.128;16.458;2023-08-06T04:15:44;1.00;;;0.80;;
73729;SDS011;62036;48.128;16.458;2023-08-06T04:18:10;1.00;;;0.82;;
73729;SDS011;62036;48.128;16.458;2023-08-06T04:20:46;1.50;;;1.10;;
73729;SDS011;62036;48.128;16.458;2023-08-06T04:23:14;2.05;;;1.20;;
73729;SDS011;62036;48.128;16.458;2023-08-06T04:25:40;1.50;;;1.20;;
73729;SDS011;62036;48.128;16.458;2023-08-06T04:28:07;1.58;;;1.00;;
73729;SDS011;62036;48.128;16.458;2023-08-06T04:30:33;1.10;;;1.00;;
73729;SDS011;62036;48.128;16.458;2023-08-06T04:32:59;1.10;;;1.00;;
73729;SDS011;62036;48.128;16.458;2023-08-06T04:35:25;0.63;;;0.63;;
73729;SDS011;62036;48.128;16.458;2023-08-06T04:37:51;0.73;;;0.73;;
73729;SDS011;62036;48.128;16.458;2023-08-06T04:40:17;0.80;;;0.80;;
73729;SDS011;62036;48.128;16.458;2023-08-06T04:42:43;1.40;;;1.30;;
73729;SDS011;62036;48.128;16.458;2023-08-06T04:45:09;1.50;;;1.23;;
73729;SDS011;62036;48.128;16.458;2023-08-06T04:47:35;1.73;;;1.02;;
73729;SDS011;62036;48.128;16.458;2023-08-06T04:50:01;1.80;;;1.20;;
73729;SDS011;62036;48.128;16.458;2023-08-06T04:52:27;1.20;;;1.10;;
73729;SDS011;62036;48.128;16.458;2023-08-06T04:54:54;1.23;;;1.02;;
73729;SDS011;62036;48.128;16.458;2023-08-06T04:57:20;1.05;;;0.90;;
73729;SDS011;62036;48.128;16.458;2023-08-06T04:59:46;1.73;;;1.02;;
73729;SDS011;62036;48.128;16.458;2023-08-06T05:02:12;1.00;;;0.85;;
73729;SDS011;62036;48.128;16.458;2023-08-06T05:04:38;1.38;;;0.80;;
73729;SDS011;62036;48.128;16.458;2023-08-06T05:07:07;1.30;;;1.10;;
73729;SDS011;62036;48.128;16.458;2023-08-06T05:09:34;1.60;;;1.30;;
73729;SDS011;62036;48.128;16.458;2023-08-06T05:12:03;1.27;;;0.90;;
73729;SDS011;62036;48.128;16.458;2023-08-06T05:14:30;1.75;;;0.90;;
73729;SDS011;62036;48.128;16.458;2023-08-06T05:16:56;1.23;;;1.00;;
73729;SDS011;62036;48.128;16.458;2023-08-06T05:19:22;1.25;;;0.98;;
73729;SDS011;62036;48.128;16.458;2023-08-06T05:21:48;2.80;;;1.10;;
73729;SDS011;62036;48.128;16.458;2023-08-06T05:24:14;2.28;;;1.00;;
73729;SDS011;62036;48.128;16.458;2023-08-06T05:26:40;1.35;;;1.00;;
73729;SDS011;62036;48.128;16.458;2023-08-06T05:29:06;1.20;;;1.10;;
73729;SDS011;62036;48.128;16.458;2023-08-06T05:31:32;1.00;;;0.80;;
73729;SDS011;62036;48.128;16.458;2023-08-06T05:33:58;1.83;;;1.10;;
73729;SDS011;62036;48.128;16.458;2023-08-06T05:36:24;2.13;;;0.90;;
73729;SDS011;62036;48.128;16.458;2023-08-06T05:38:50;1.35;;;1.00;;
73729;SDS011;62036;48.128;16.458;2023-08-06T05:41:16;1.30;;;0.77;;
73729;SDS011;62036;48.128;16.458;2023-08-06T05:43:42;1.15;;;0.90;;
73729;SDS011;62036;48.128;16.458;2023-08-06T05:46:08;1.33;;;1.00;;
73729;SDS011;62036;48.128;16.458;2023-08-06T05:48:34;1.70;;;0.90;;
73729;SDS011;62036;48.128;16.458;2023-08-06T05:51:00;1.10;;;0.88;;
73729;SDS011;62036;48.128;16.458;2023-08-06T05:53:26;1.63;;;1.00;;
73729;SDS011;62036;48.128;16.458;2023-08-06T05:55:52;1.30;;;1.05;;
73729;SDS011;62036;48.128;16.458;2023-08-06T05:58:18;1.17;;;0.82;;
73729;SDS011;62036;48.128;16.458;2023-08-06T06:00:49;0.90;;;0.80;;
73729;SDS011;62036;48.128;16.458;2023-08-06T06:03:15;0.70;;;0.70;;
73729;SDS011;62036;48.128;16.458;2023-08-06T06:05:41;1.02;;;0.82;;
73729;SDS011;62036;48.128;16.458;2023-08-06T06:08:07;1.33;;;1.10;;
73729;SDS011;62036;48.128;16.458;2023-08-06T06:10:33;1.50;;;1.02;;
73729;SDS011;62036;48.128;16.458;2023-08-06T06:12:59;1.42;;;1.02;;
73729;SDS011;62036;48.128;16.458;2023-08-06T06:15:25;1.10;;;1.00;;
73729;SDS011;62036;48.128;16.458;2023-08-06T06:17:51;1.40;;;1.00;;
73729;SDS011;62036;48.128;16.458;2023-08-06T06:20:17;0.95;;;0.93;;
73729;SDS011;62036;48.128;16.458;2023-08-06T06:22:43;1.40;;;1.13;;
73729;SDS011;62036;48.128;16.458;2023-08-06T06:25:09;1.80;;;0.90;;
73729;SDS011;62036;48.128;16.458;2023-08-06T06:27:35;1.15;;;0.90;;
73729;SDS011;62036;48.128;16.458;2023-08-06T06:30:01;2.58;;;1.02;;
73729;SDS011;62036;48.128;16.458;2023-08-06T06:32:27;1.27;;;1.17;;
73729;SDS011;62036;48.128;16.458;2023-08-06T06:34:53;1.50;;;0.98;;
73729;SDS011;62036;48.128;16.458;2023-08-06T06:37:19;1.00;;;0.90;;
73729;SDS011;62036;48.128;16.458;2023-08-06T06:39:46;1.90;;;1.17;;
73729;SDS011;62036;48.128;16.458;2023-08-06T06:42:12;2.88;;;1.20;;
73729;SDS011;62036;48.128;16.458;2023-08-06T06:44:40;1.40;;;1.05;;
73729;SDS011;62036;48.128;16.458;2023-08-06T06:47:06;1.15;;;1.00;;
73729;SDS011;62036;48.128;16.458;2023-08-06T06:49:32;5.75;;;0.90;;
73729;SDS011;62036;48.128;16.458;2023-08-06T06:51:58;1.35;;;1.15;;
73729;SDS011;62036;48.128;16.458;2023-08-06T06:54:24;2.22;;;1.05;;
73729;SDS011;62036;48.128;16.458;2023-08-06T06:56:50;3.53;;;1.23;;
73729;SDS011;62036;48.128;16.458;2023-08-06T06:59:16;2.05;;;1.25;;
73729;SDS011;62036;48.128;16.458;2023-08-06T07:01:42;2.42;;;1.02;;
73729;SDS011;62036;48.128;16.458;2023-08-06T07:04:08;1.27;;;1.10;;
73729;SDS011;62036;48.128;16.458;2023-08-06T07:06:34;1.88;;;0.95;;
73729;SDS011;62036;48.128;16.458;2023-08-06T07:09:00;1.58;;;1.00;;
73729;SDS011;62036;48.128;16.458;2023-08-06T07:11:26;1.67;;;1.23;;
73729;SDS011;62036;48.128;16.458;2023-08-06T07:13:58;1.52;;;1.40;;
73729;SDS011;62036;48.128;16.458;2023-08-06T07:16:24;2.40;;;0.82;;
73729;SDS011;62036;48.128;16.458;2023-08-06T07:18:51;1.23;;;1.10;;
73729;SDS011;62036;48.128;16.458;2023-08-06T07:21:17;1.08;;;0.80;;
73729;SDS011;62036;48.128;16.458;2023-08-06T07:23:43;1.33;;;0.80;;
73729;SDS011;62036;48.128;16.458;2023-08-06T07:26:10;1.23;;;0.68;;
73729;SDS011;62036;48.128;16.458;2023-08-06T07:28:36;1.17;;;0.90;;
73729;SDS011;62036;48.128;16.458;2023-08-06T07:31:02;1.42;;;0.80;;
73729;SDS011;62036;48.128;16.458;2023-08-06T07:33:29;1.25;;;1.10;;
73729;SDS011;62036;48.128;16.458;2023-08-06T07:35:55;2.22;;;0.77;;
73729;SDS011;62036;48.128;16.458;2023-08-06T07:38:21;1.27;;;1.05;;
73729;SDS011;62036;48.128;16.458;2023-08-06T07:40:51;1.73;;;1.00;;
73729;SDS011;62036;48.128;16.458;2023-08-06T07:43:17;4.15;;;1.10;;
73729;SDS011;62036;48.128;16.458;2023-08-06T07:45:43;1.25;;;1.05;;
73729;SDS011;62036;48.128;16.458;2023-08-06T07:48:09;1.30;;;1.05;;
73729;SDS011;62036;48.128;16.458;2023-08-06T07:50:35;1.35;;;1.00;;
73729;SDS011;62036;48.128;16.458;2023-08-06T07:53:01;1.77;;;1.00;;
73729;SDS011;62036;48.128;16.458;2023-08-06T07:55:27;1.10;;;1.00;;
73729;SDS011;62036;48.128;16.458;2023-08-06T07:57:53;1.88;;;1.40;;
73729;SDS011;62036;48.128;16.458;2023-08-06T08:00:19;1.33;;;1.00;;
73729;SDS011;62036;48.128;16.458;2023-08-06T08:02:45;1.17;;;0.73;;
73729;SDS011;62036;48.128;16.458;2023-08-06T08:05:11;1.10;;;1.00;;
73729;SDS011;62036;48.128;16.458;2023-08-06T08:07:37;1.83;;;1.10;;
73729;SDS011;62036;48.128;16.458;2023-08-06T08:10:04;1.50;;;1.30;;
73729;SDS011;62036;48.128;16.458;2023-08-06T08:12:30;1.27;;;1.17;;
73729;SDS011;62036;48.128;16.458;2023-08-06T08:14:56;1.77;;;1.10;;
73729;SDS011;62036;48.128;16.458;2023-08-06T08:17:22;1.52;;;0.93;;
73729;SDS011;62036;48.128;16.458;2023-08-06T08:19:48;1.10;;;1.00;;
73729;SDS011;62036;48.128;16.458;2023-08-06T08:22:14;1.10;;;1.00;;
73729;SDS011;62036;48.128;16.458;2023-08-06T08:24:40;2.20;;;1.10;;
73729;SDS011;62036;48.128;16.458;2023-08-06T08:27:09;1.10;;;0.85;;
73729;SDS011;62036;48.128;16.458;2023-08-06T08:29:35;1.27;;;0.85;;
73729;SDS011;62036;48.128;16.458;2023-08-06T08:32:01;1.83;;;1.10;;
73729;SDS011;62036;48.128;16.458;2023-08-06T08:34:27;1.20;;;0.90;;
73729;SDS011;62036;48.128;16.458;2023-08-06T08:36:53;1.27;;;1.10;;
73729;SDS011;62036;48.128;16.458;2023-08-06T08:39:19;1.40;;;1.15;;
73729;SDS011;62036;48.128;16.458;2023-08-06T08:41:45;1.80;;;1.30;;
73729;SDS011;62036;48.128;16.458;2023-08-06T08:44:11;3.03;;;1.27;;
73729;SDS011;62036;48.128;16.458;2023-08-06T08:46:40;3.60;;;1.60;;
73729;SDS011;62036;48.128;16.458;2023-08-06T08:49:06;1.85;;;1.40;;
73729;SDS011;62036;48.128;16.458;2023-08-06T08:51:33;2.08;;;1.15;;
73729;SDS011;62036;48.128;16.458;2023-08-06T08:54:00;1.27;;;1.17;;
73729;SDS011;62036;48.128;16.458;2023-08-06T08:56:28;1.90;;;1.65;;
73729;SDS011;62036;48.128;16.458;2023-08-06T08:58:54;1.38;;;1.23;;
73729;SDS011;62036;48.128;16.458;2023-08-06T09:01:21;1.52;;;1.30;;
73729;SDS011;62036;48.128;16.458;2023-08-06T09:03:47;3.03;;;1.35;;
73729;SDS011;62036;48.128;16.458;2023-08-06T09:06:13;1.35;;;1.25;;
73729;SDS011;62036;48.128;16.458;2023-08-06T09:08:41;1.75;;;1.27;;
73729;SDS011;62036;48.128;16.458;2023-08-06T09:11:09;1.42;;;1.33;;
73729;SDS011;62036;48.128;16.458;2023-08-06T09:13:38;1.83;;;1.35;;
73729;SDS011;62036;48.128;16.458;2023-08-06T09:16:04;2.75;;;1.42;;
73729;SDS011;62036;48.128;16.458;2023-08-06T09:18:30;2.83;;;1.42;;
73729;SDS011;62036;48.128;16.458;2023-08-06T09:20:57;1.73;;;1.60;;
73729;SDS011;62036;48.128;16.458;2023-08-06T09:23:30;2.20;;;1.55;;
73729;SDS011;62036;48.128;16.458;2023-08-06T09:25:56;3.13;;;1.95;;
73729;SDS011;62036;48.128;16.458;2023-08-06T09:28:22;2.90;;;2.00;;
73729;SDS011;62036;48.128;16.458;2023-08-06T09:30:49;2.35;;;1.90;;
73729;SDS011;62036;48.128;16.458;2023-08-06T09:33:19;2.35;;;1.98;;
73729;SDS011;62036;48.128;16.458;2023-08-06T09:35:45;2.83;;;1.77;;
73729;SDS011;62036;48.128;16.458;2023-08-06T09:38:12;2.17;;;1.90;;
73729;SDS011;62036;48.128;16.458;2023-08-06T09:40:38;2.92;;;2.22;;
73729;SDS011;62036;48.128;16.458;2023-08-06T09:43:05;2.38;;;1.98;;
73729;SDS011;62036;48.128;16.458;2023-08-06T09:45:32;2.38;;;2.17;;
73729;SDS011;62036;48.128;16.458;2023-08-06T09:47:59;3.45;;;2.47;;
73729;SDS011;62036;48.128;16.458;2023-08-06T09:50:28;2.65;;;2.20;;
73729;SDS011;62036;48.128;16.458;2023-08-06T09:52:55;2.05;;;1.80;;
73729;SDS011;62036;48.128;16.458;2023-08-06T09:55:22;2.13;;;1.90;;
73729;SDS011;62036;48.128;16.458;2023-08-06T09:57:49;2.25;;;2.00;;
73729;SDS011;62036;48.128;16.458;2023-08-06T10:00:16;2.55;;;2.35;;
73729;SDS011;62036;48.128;16.458;2023-08-06T10:02:43;2.22;;;1.98;;
73729;SDS011;62036;48.128;16.458;2023-08-06T10:05:09;2.35;;;2.10;;
73729;SDS011;62036;48.128;16.458;2023-08-06T10:07:36;2.92;;;1.85;;
73729;SDS011;62036;48.128;16.458;2023-08-06T10:10:04;2.88;;;1.90;;
73729;SDS011;62036;48.128;16.458;2023-08-06T10:12:32;2.17;;;1.63;;
73729;SDS011;62036;48.128;16.458;2023-08-06T10:15:00;1.98;;;1.77;;
73729;SDS011;62036;48.128;16.458;2023-08-06T10:17:27;3.17;;;2.10;;
73729;SDS011;62036;48.128;16.458;2023-08-06T10:19:54;3.13;;;2.30;;
73729;SDS011;62036;48.128;16.458;2023-08-06T10:22:21;2.65;;;1.65;;
73729;SDS011;62036;48.128;16.458;2023-08-06T10:24:52;1.92;;;1.73;;
73729;SDS011;62036;48.128;16.458;2023-08-06T10:27:22;2.22;;;1.92;;
73729;SDS011;62036;48.128;16.458;2023-08-06T10:29:48;2.30;;;1.77;;
73729;SDS011;62036;48.128;16.458;2023-08-06T10:32:15;3.53;;;1.75;;
73729;SDS011;62036;48.128;16.458;2023-08-06T10:34:58;2.30;;;1.90;;
73729;SDS011;62036;48.128;16.458;2023-08-06T10:37:37;2.53;;;1.88;;
73729;SDS011;62036;48.128;16.458;2023-08-06T10:40:04;2.65;;;1.63;;
73729;SDS011;62036;48.128;16.458;2023-08-06T10:42:32;2.42;;;1.70;;
73729;SDS011;62036;48.128;16.458;2023-08-06T10:45:17;3.38;;;2.22;;
73729;SDS011;62036;48.128;16.458;2023-08-06T10:47:44;2.15;;;1.83;;
73729;SDS011;62036;48.128;16.458;2023-08-06T10:50:16;3.08;;;2.00;;
73729;SDS011;62036;48.128;16.458;2023-08-06T10:52:45;2.60;;;2.03;;
73729;SDS011;62036;48.128;16.458;2023-08-06T10:55:12;2.85;;;1.98;;
73729;SDS011;62036;48.128;16.458;2023-08-06T10:57:38;3.40;;;1.73;;
73729;SDS011;62036;48.128;16.458;2023-08-06T11:00:04;3.30;;;2.13;;
73729;SDS011;62036;48.128;16.458;2023-08-06T11:02:35;2.58;;;1.70;;
73729;SDS011;62036;48.128;16.458;2023-08-06T11:05:05;1.45;;;1.23;;
73729;SDS011;62036;48.128;16.458;2023-08-06T11:07:31;2.88;;;2.03;;
73729;SDS011;62036;48.128;16.458;2023-08-06T11:10:04;1.85;;;1.50;;
73729;SDS011;62036;48.128;16.458;2023-08-06T11:12:31;2.08;;;1.83;;
73729;SDS011;62036;48.128;16.458;2023-08-06T11:14:57;1.58;;;1.25;;
73729;SDS011;62036;48.128;16.458;2023-08-06T11:17:23;3.65;;;1.60;;
73729;SDS011;62036;48.128;16.458;2023-08-06T11:19:49;1.40;;;1.15;;
73729;SDS011;62036;48.128;16.458;2023-08-06T11:22:16;1.83;;;1.50;;
73729;SDS011;62036;48.128;16.458;2023-08-06T11:24:42;3.70;;;1.63;;
73729;SDS011;62036;48.128;16.458;2023-08-06T11:27:11;2.63;;;1.60;;
73729;SDS011;62036;48.128;16.458;2023-08-06T11:29:38;1.67;;;1.40;;
73729;SDS011;62036;48.128;16.458;2023-08-06T11:32:04;2.38;;;1.23;;
73729;SDS011;62036;48.128;16.458;2023-08-06T11:34:30;2.33;;;1.70;;
73729;SDS011;62036;48.128;16.458;2023-08-06T11:36:57;1.65;;;1.30;;
73729;SDS011;62036;48.128;16.458;2023-08-06T11:39:23;1.80;;;1.30;;
73729;SDS011;62036;48.128;16.458;2023-08-06T11:41:49;1.90;;;1.50;;
73729;SDS011;62036;48.128;16.458;2023-08-06T11:44:18;2.20;;;1.40;;
73729;SDS011;62036;48.128;16.458;2023-08-06T11:46:54;1.70;;;1.58;;
73729;SDS011;62036;48.128;16.458;2023-08-06T11:54:41;3.72;;;1.95;;
73729;SDS011;62036;48.128;16.458;2023-08-06T11:57:07;1.77;;;1.55;;
73729;SDS011;62036;48.128;16.458;2023-08-06T11:59:33;2.00;;;1.50;;
73729;SDS011;62036;48.128;16.458;2023-08-06T12:02:00;2.80;;;1.80;;
73729;SDS011;62036;48.128;16.458;2023-08-06T12:04:26;2.17;;;1.42;;
73729;SDS011;62036;48.128;16.458;2023-08-06T12:06:52;2.85;;;2.00;;
73729;SDS011;62036;48.128;16.458;2023-08-06T12:09:18;2.00;;;1.40;;
73729;SDS011;62036;48.128;16.458;2023-08-06T12:11:45;2.30;;;1.90;;
73729;SDS011;62036;48.128;16.458;2023-08-06T12:14:11;2.95;;;1.90;;
73729;SDS011;62036;48.128;16.458;2023-08-06T12:16:37;2.60;;;1.80;;
73729;SDS011;62036;48.128;16.458;2023-08-06T12:19:03;3.58;;;2.17;;
73729;SDS011;62036;48.128;16.458;2023-08-06T12:21:29;2.05;;;1.58;;
73729;SDS011;62036;48.128;16.458;2023-08-06T12:23:55;1.92;;;1.70;;
73729;SDS011;62036;48.128;16.458;2023-08-06T12:26:21;2.97;;;1.85;;
73729;SDS011;62036;48.128;16.458;2023-08-06T12:28:47;1.92;;;1.50;;
73729;SDS011;62036;48.128;16.458;2023-08-06T12:31:14;2.28;;;1.60;;
73729;SDS011;62036;48.128;16.458;2023-08-06T12:33:40;2.78;;;2.03;;
73729;SDS011;62036;48.128;16.458;2023-08-06T12:36:06;9.82;;;5.53;;
73729;SDS011;62036;48.128;16.458;2023-08-06T12:38:32;2.58;;;1.88;;
73729;SDS011;62036;48.128;16.458;2023-08-06T12:40:58;2.22;;;1.60;;
73729;SDS011;62036;48.128;16.458;2023-08-06T12:43:24;12.52;;;6.93;;
73729;SDS011;62036;48.128;16.458;2023-08-06T12:45:50;5.00;;;2.75;;
73729;SDS011;62036;48.128;16.458;2023-08-06T12:48:16;2.80;;;1.60;;
73729;SDS011;62036;48.128;16.458;2023-08-06T12:50:44;2.38;;;1.45;;
73729;SDS011;62036;48.128;16.458;2023-08-06T12:53:10;2.20;;;1.48;;
73729;SDS011;62036;48.128;16.458;2023-08-06T12:55:36;3.67;;;2.15;;
73729;SDS011;62036;48.128;16.458;2023-08-06T12:58:02;1.63;;;1.50;;
73729;SDS011;62036;48.128;16.458;2023-08-06T13:00:28;3.15;;;1.98;;
73729;SDS011;62036;48.128;16.458;2023-08-06T13:02:54;3.47;;;1.75;;
73729;SDS011;62036;48.128;16.458;2023-08-06T13:05:20;2.47;;;1.60;;
73729;SDS011;62036;48.128;16.458;2023-08-06T13:07:46;2.08;;;1.52;;
73729;SDS011;62036;48.128;16.458;2023-08-06T13:10:12;2.42;;;2.20;;
73729;SDS011;62036;48.128;16.458;2023-08-06T13:12:38;1.98;;;1.77;;
73729;SDS011;62036;48.128;16.458;2023-08-06T13:15:04;1.65;;;1.55;;
73729;SDS011;62036;48.128;16.458;2023-08-06T13:17:31;2.30;;;1.73;;
73729;SDS011;62036;48.128;16.458;2023-08-06T13:19:57;1.90;;;1.40;;
73729;SDS011;62036;48.128;16.458;2023-08-06T13:22:23;4.18;;;2.00;;
73729;SDS011;62036;48.128;16.458;2023-08-06T13:24:48;4.28;;;1.70;;
73729;SDS011;62036;48.128;16.458;2023-08-06T13:27:14;2.75;;;1.73;;
73729;SDS011;62036;48.128;16.458;2023-08-06T13:29:40;2.20;;;1.80;;
73729;SDS011;62036;48.128;16.458;2023-08-06T13:32:06;2.63;;;1.42;;
73729;SDS011;62036;48.128;16.458;2023-08-06T13:34:32;1.83;;;1.63;;
73729;SDS011;62036;48.128;16.458;2023-08-06T13:36:58;2.33;;;1.85;;
73729;SDS011;62036;48.128;16.458;2023-08-06T13:39:24;2.65;;;1.95;;
73729;SDS011;62036;48.128;16.458;2023-08-06T13:41:50;1.95;;;1.55;;
73729;SDS011;62036;48.128;16.458;2023-08-06T13:44:17;2.03;;;1.30;;
73729;SDS011;62036;48.128;16.458;2023-08-06T13:46:43;2.83;;;1.60;;
73729;SDS011;62036;48.128;16.458;2023-08-06T13:49:09;1.92;;;1.42;;
73729;SDS011;62036;48.128;16.458;2023-08-06T13:51:35;2.22;;;1.63;;
73729;SDS011;62036;48.128;16.458;2023-08-06T13:54:01;2.83;;;1.65;;
73729;SDS011;62036;48.128;16.458;2023-08-06T13:56:27;1.80;;;1.60;;
73729;SDS011;62036;48.128;16.458;2023-08-06T13:58:54;1.60;;;1.30;;
73729;SDS011;62036;48.128;16.458;2023-08-06T14:01:20;2.80;;;1.65;;
73729;SDS011;62036;48.128;16.458;2023-08-06T14:03:47;2.38;;;1.42;;
73729;SDS011;62036;48.128;16.458;2023-08-06T14:06:13;2.17;;;1.48;;
73729;SDS011;62036;48.128;16.458;2023-08-06T14:08:39;1.90;;;1.40;;
73729;SDS011;62036;48.128;16.458;2023-08-06T14:11:05;3.30;;;1.30;;
73729;SDS011;62036;48.128;16.458;2023-08-06T14:13:32;1.77;;;1.23;;
73729;SDS011;62036;48.128;16.458;2023-08-06T14:15:58;1.60;;;1.00;;
73729;SDS011;62036;48.128;16.458;2023-08-06T14:18:24;1.60;;;1.05;;
73729;SDS011;62036;48.128;16.458;2023-08-06T14:20:50;1.65;;;0.90;;
73729;SDS011;62036;48.128;16.458;2023-08-06T14:23:16;1.65;;;0.75;;
73729;SDS011;62036;48.128;16.458;2023-08-06T14:25:42;2.22;;;0.65;;
73729;SDS011;62036;48.128;16.458;2023-08-06T14:28:08;2.08;;;0.47;;
73729;SDS011;62036;48.128;16.458;2023-08-06T14:30:34;0.77;;;0.52;;
73729;SDS011;62036;48.128;16.458;2023-08-06T14:33:00;2.58;;;0.63;;
73729;SDS011;62036;48.128;16.458;2023-08-06T14:35:27;0.77;;;0.30;;
73729;SDS011;62036;48.128;16.458;2023-08-06T14:37:53;0.82;;;0.30;;
73729;SDS011;62036;48.128;16.458;2023-08-06T14:40:19;0.77;;;0.40;;